sensor_id;sensor_type;location;lat;lon;timestamp;pressure;altitude;pressure_sealevel;temperature;humidity
28510;BME280;15723;55.684;37.928;2022-12-18T00:02:21;99609.38;;;-3.93;83.87
28510;BME280;15723;55.684;37.928;2022-12-18T00:04:48;99609.38;;;-3.95;83.96
28510;BME280;15723;55.684;37.928;2022-12-18T00:07:14;99607.66;;;-3.97;83.94
28510;BME280;15723;55.684;37.928;2022-12-18T00:09:40;99601.47;;;-3.99;83.93
28510;BME280;15723;55.684;37.928;2022-12-18T00:12:06;99589.81;;;-3.85;83.83
28510;BME280;15723;55.684;37.928;2022-12-18T00:14:33;99587.19;;;-3.86;83.67
28510;BME280;15723;55.684;37.928;2022-12-18T00:16:59;99581.00;;;-3.87;83.53
28510;BME280;15723;55.684;37.928;2022-12-18T00:19:26;99577.50;;;-3.89;83.61
28510;BME280;15723;55.684;37.928;2022-12-18T00:21:52;99573.09;;;-3.90;83.69
28510;BME280;15723;55.684;37.928;2022-12-18T00:24:19;99575.88;;;-4.00;83.35
28510;BME280;15723;55.684;37.928;2022-12-18T00:26:45;99565.16;;;-3.93;83.74
28510;BME280;15723;55.684;37.928;2022-12-18T00:29:13;99566.06;;;-3.94;83.73
28510;BME280;15723;55.684;37.928;2022-12-18T00:31:40;99561.69;;;-3.98;83.81
28510;BME280;15723;55.684;37.928;2022-12-18T00:34:11;99559.00;;;-3.95;83.14
28510;BME280;15723;55.684;37.928;2022-12-18T00:36:40;99550.06;;;-3.88;83.63
28510;BME280;15723;55.684;37.928;2022-12-18T00:39:07;99549.25;;;-3.91;83.60
28510;BME280;15723;55.684;37.928;2022-12-18T00:41:33;99545.03;;;-4.11;83.11
28510;BME280;15723;55.684;37.928;2022-12-18T00:44:19;99535.97;;;-3.90;83.65
28510;BME280;15723;55.684;37.928;2022-12-18T00:46:46;99536.00;;;-3.93;83.13
28510;BME280;15723;55.684;37.928;2022-12-18T00:49:13;99538.81;;;-4.06;83.23
28510;BME280;15723;55.684;37.928;2022-12-18T00:51:39;99524.63;;;-4.02;83.11
28510;BME280;15723;55.684;37.928;2022-12-18T00:54:06;99517.53;;;-4.00;83.09
28510;BME280;15723;55.684;37.928;2022-12-18T00:56:32;99514.88;;;-3.99;82.86
28510;BME280;15723;55.684;37.928;2022-12-18T00:58:58;99502.38;;;-3.91;82.88
28510;BME280;15723;55.684;37.928;2022-12-18T01:01:25;99498.97;;;-4.00;82.84
28510;BME280;15723;55.684;37.928;2022-12-18T01:03:51;99500.78;;;-4.04;82.68
28510;BME280;15723;55.684;37.928;2022-12-18T01:06:19;99493.63;;;-3.97;82.90
28510;BME280;15723;55.684;37.928;2022-12-18T01:08:46;99490.13;;;-3.99;82.67
28510;BME280;15723;55.684;37.928;2022-12-18T01:11:15;99475.19;;;-4.05;82.67
28510;BME280;15723;55.684;37.928;2022-12-18T01:13:43;99467.13;;;-3.97;82.75
28510;BME280;15723;55.684;37.928;2022-12-18T01:16:12;99470.78;;;-4.06;82.50
28510;BME280;15723;55.684;37.928;2022-12-18T01:18:39;99463.75;;;-4.08;82.48
28510;BME280;15723;55.684;37.928;2022-12-18T01:21:11;99472.53;;;-4.05;82.08
28510;BME280;15723;55.684;37.928;2022-12-18T01:23:37;99468.13;;;-4.06;81.93
28510;BME280;15723;55.684;37.928;2022-12-18T01:26:11;99458.34;;;-4.01;81.53
28510;BME280;15723;55.684;37.928;2022-12-18T01:28:38;99449.47;;;-3.98;81.77
28510;BME280;15723;55.684;37.928;2022-12-18T01:31:15;99452.13;;;-3.98;81.53
28510;BME280;15723;55.684;37.928;2022-12-18T01:33:42;99459.13;;;-3.94;81.35
28510;BME280;15723;55.684;37.928;2022-12-18T01:36:14;99454.75;;;-3.97;81.41
28510;BME280;15723;55.684;37.928;2022-12-18T01:38:41;99460.97;;;-3.99;80.78
28510;BME280;15723;55.684;37.928;2022-12-18T01:41:08;99460.91;;;-3.95;80.96
28510;BME280;15723;55.684;37.928;2022-12-18T01:46:07;99445.91;;;-3.97;80.64
28510;BME280;15723;55.684;37.928;2022-12-18T01:48:35;99451.91;;;-3.85;80.58
28510;BME280;15723;55.684;37.928;2022-12-18T01:51:01;99452.03;;;-3.92;80.16
28510;BME280;15723;55.684;37.928;2022-12-18T01:53:28;99466.25;;;-3.98;80.13
28510;BME280;15723;55.684;37.928;2022-12-18T01:55:56;99451.25;;;-4.00;80.07
28510;BME280;15723;55.684;37.928;2022-12-18T01:58:50;99450.22;;;-3.90;80.01
28510;BME280;15723;55.684;37.928;2022-12-18T02:01:14;99433.56;;;-3.98;79.89
28510;BME280;15723;55.684;37.928;2022-12-18T02:03:42;99436.03;;;-3.86;79.99
28510;BME280;15723;55.684;37.928;2022-12-18T02:08:58;99435.00;;;-3.78;79.60
28510;BME280;15723;55.684;37.928;2022-12-18T02:11:59;99443.22;;;-3.94;80.23
28510;BME280;15723;55.684;37.928;2022-12-18T02:17:04;99425.66;;;-4.01;80.46
28510;BME280;15723;55.684;37.928;2022-12-18T02:24:42;99437.97;;;-3.97;80.88
28510;BME280;15723;55.684;37.928;2022-12-18T02:27:12;99433.66;;;-4.09;80.74
28510;BME280;15723;55.684;37.928;2022-12-18T02:32:18;99430.28;;;-4.20;80.73
28510;BME280;15723;55.684;37.928;2022-12-18T02:34:46;99413.25;;;-4.01;81.00
28510;BME280;15723;55.684;37.928;2022-12-18T02:37:18;99416.00;;;-4.10;80.63
28510;BME280;15723;55.684;37.928;2022-12-18T02:39:46;99435.47;;;-4.08;80.60
28510;BME280;15723;55.684;37.928;2022-12-18T02:42:16;99433.81;;;-4.18;80.84
28510;BME280;15723;55.684;37.928;2022-12-18T02:44:49;99423.19;;;-4.18;80.71
28510;BME280;15723;55.684;37.928;2022-12-18T02:47:22;99425.94;;;-4.24;80.57
28510;BME280;15723;55.684;37.928;2022-12-18T02:50:35;99432.78;;;-4.10;81.05
28510;BME280;15723;55.684;37.928;2022-12-18T02:53:27;99422.94;;;-3.98;80.98
28510;BME280;15723;55.684;37.928;2022-12-18T02:58:33;99433.66;;;-4.09;80.58
28510;BME280;15723;55.684;37.928;2022-12-18T03:02:14;99429.47;;;-4.25;80.59
28510;BME280;15723;55.684;37.928;2022-12-18T03:04:19;99439.16;;;-4.23;80.20
28510;BME280;15723;55.684;37.928;2022-12-18T03:06:51;99428.56;;;-4.24;80.63
28510;BME280;15723;55.684;37.928;2022-12-18T03:09:34;99429.50;;;-4.28;80.47
28510;BME280;15723;55.684;37.928;2022-12-18T03:12:22;99419.75;;;-4.25;80.87
28510;BME280;15723;55.684;37.928;2022-12-18T03:14:59;99406.59;;;-4.31;80.68
28510;BME280;15723;55.684;37.928;2022-12-18T03:17:28;99412.81;;;-4.33;80.98
28510;BME280;15723;55.684;37.928;2022-12-18T03:19:59;99405.78;;;-4.37;80.65
28510;BME280;15723;55.684;37.928;2022-12-18T03:22:30;99410.13;;;-4.32;80.92
28510;BME280;15723;55.684;37.928;2022-12-18T03:24:57;99418.97;;;-4.33;80.95
28510;BME280;15723;55.684;37.928;2022-12-18T03:27:28;99442.09;;;-4.44;80.67
28510;BME280;15723;55.684;37.928;2022-12-18T03:30:03;99446.50;;;-4.48;80.99
28510;BME280;15723;55.684;37.928;2022-12-18T03:32:46;99446.28;;;-4.26;80.79
28510;BME280;15723;55.684;37.928;2022-12-18T03:35:17;99434.13;;;-4.47;80.63
28510;BME280;15723;55.684;37.928;2022-12-18T03:37:45;99441.09;;;-4.35;80.89
28510;BME280;15723;55.684;37.928;2022-12-18T03:40:11;99439.34;;;-4.36;80.88
28510;BME280;15723;55.684;37.928;2022-12-18T03:43:02;99422.66;;;-4.43;80.96
28510;BME280;15723;55.684;37.928;2022-12-18T03:45:35;99416.25;;;-4.28;81.26
28510;BME280;15723;55.684;37.928;2022-12-18T03:48:24;99435.84;;;-4.38;80.83
28510;BME280;15723;55.684;37.928;2022-12-18T03:50:58;99434.16;;;-4.49;80.57
28510;BME280;15723;55.684;37.928;2022-12-18T03:53:37;99424.34;;;-4.39;80.98
28510;BME280;15723;55.684;37.928;2022-12-18T03:56:08;99418.97;;;-4.31;81.03
28510;BME280;15723;55.684;37.928;2022-12-18T03:58:40;99430.59;;;-4.45;80.44
28510;BME280;15723;55.684;37.928;2022-12-18T04:01:22;99441.22;;;-4.49;80.24
28510;BME280;15723;55.684;37.928;2022-12-18T04:03:52;99435.84;;;-4.38;80.52
28510;BME280;15723;55.684;37.928;2022-12-18T04:06:20;99438.47;;;-4.38;80.08
28510;BME280;15723;55.684;37.928;2022-12-18T04:08:47;99443.84;;;-4.45;79.91
28510;BME280;15723;55.684;37.928;2022-12-18T04:11:17;99437.63;;;-4.41;79.65
28510;BME280;15723;55.684;37.928;2022-12-18T04:13:45;99432.38;;;-4.44;79.82
28510;BME280;15723;55.684;37.928;2022-12-18T04:16:18;99441.22;;;-4.45;79.58
28510;BME280;15723;55.684;37.928;2022-12-18T04:18:46;99433.09;;;-4.32;79.92
28510;BME280;15723;55.684;37.928;2022-12-18T04:21:13;99427.16;;;-4.53;79.27
28510;BME280;15723;55.684;37.928;2022-12-18T04:23:39;99437.59;;;-4.37;79.68
28510;BME280;15723;55.684;37.928;2022-12-18T04:26:06;99439.13;;;-4.21;79.57
28510;BME280;15723;55.684;37.928;2022-12-18T04:28:46;99461.38;;;-4.33;79.14
28510;BME280;15723;55.684;37.928;2022-12-18T04:31:12;99477.19;;;-4.27;79.75
28510;BME280;15723;55.684;37.928;2022-12-18T04:33:39;99475.53;;;-4.34;79.74
28510;BME280;15723;55.684;37.928;2022-12-18T04:36:07;99479.97;;;-4.37;79.85
28510;BME280;15723;55.684;37.928;2022-12-18T04:38:33;99472.78;;;-4.28;80.12
28510;BME280;15723;55.684;37.928;2022-12-18T04:41:06;99472.84;;;-4.31;79.63
28510;BME280;15723;55.684;37.928;2022-12-18T04:43:33;99489.75;;;-4.43;79.39
28510;BME280;15723;55.684;37.928;2022-12-18T04:46:03;99487.81;;;-4.28;78.75
28510;BME280;15723;55.684;37.928;2022-12-18T04:48:30;99496.75;;;-4.37;78.88
28510;BME280;15723;55.684;37.928;2022-12-18T04:50:56;99513.59;;;-4.43;78.70
28510;BME280;15723;55.684;37.928;2022-12-18T04:53:23;99512.50;;;-4.25;78.54
28510;BME280;15723;55.684;37.928;2022-12-18T04:55:49;99517.91;;;-4.32;78.19
28510;BME280;15723;55.684;37.928;2022-12-18T04:58:15;99533.94;;;-4.49;78.67
28510;BME280;15723;55.684;37.928;2022-12-18T05:00:42;99530.41;;;-4.45;78.65
28510;BME280;15723;55.684;37.928;2022-12-18T05:03:08;99550.69;;;-4.41;78.87
28510;BME280;15723;55.684;37.928;2022-12-18T05:05:35;99550.72;;;-4.46;78.76
28510;BME280;15723;55.684;37.928;2022-12-18T05:08:01;99562.19;;;-4.44;78.29
28510;BME280;15723;55.684;37.928;2022-12-18T05:10:27;99567.50;;;-4.50;78.50
28510;BME280;15723;55.684;37.928;2022-12-18T05:12:53;99565.75;;;-4.51;78.66
28510;BME280;15723;55.684;37.928;2022-12-18T05:15:30;99549.81;;;-4.45;78.70
28510;BME280;15723;55.684;37.928;2022-12-18T05:17:58;99543.63;;;-4.44;78.49
28510;BME280;15723;55.684;37.928;2022-12-18T05:20:25;99553.41;;;-4.52;78.69
28510;BME280;15723;55.684;37.928;2022-12-18T05:22:51;99555.97;;;-4.39;78.49
28510;BME280;15723;55.684;37.928;2022-12-18T05:25:18;99553.34;;;-4.43;78.28
28510;BME280;15723;55.684;37.928;2022-12-18T05:27:44;99566.63;;;-4.49;78.27
28510;BME280;15723;55.684;37.928;2022-12-18T05:30:11;99563.09;;;-4.49;78.13
28510;BME280;15723;55.684;37.928;2022-12-18T05:32:38;99547.31;;;-4.60;78.34
28510;BME280;15723;55.684;37.928;2022-12-18T05:35:06;99549.94;;;-4.60;78.54
28510;BME280;15723;55.684;37.928;2022-12-18T05:37:33;99554.22;;;-4.44;78.85
28510;BME280;15723;55.684;37.928;2022-12-18T05:39:59;99572.78;;;-4.48;78.39
28510;BME280;15723;55.684;37.928;2022-12-18T05:42:25;99577.22;;;-4.46;78.07
28510;BME280;15723;55.684;37.928;2022-12-18T05:44:52;99579.97;;;-4.59;78.04
28510;BME280;15723;55.684;37.928;2022-12-18T05:47:18;99583.44;;;-4.54;77.87
28510;BME280;15723;55.684;37.928;2022-12-18T05:49:45;99584.28;;;-4.45;77.97
28510;BME280;15723;55.684;37.928;2022-12-18T05:52:11;99588.69;;;-4.48;78.28
28510;BME280;15723;55.684;37.928;2022-12-18T05:54:37;99593.09;;;-4.44;77.76
28510;BME280;15723;55.684;37.928;2022-12-18T05:57:03;99602.81;;;-4.48;77.97
28510;BME280;15723;55.684;37.928;2022-12-18T05:59:29;99589.56;;;-4.48;78.05
28510;BME280;15723;55.684;37.928;2022-12-18T06:01:55;99605.59;;;-4.63;78.16
28510;BME280;15723;55.684;37.928;2022-12-18T06:04:22;99605.66;;;-4.69;78.17
28510;BME280;15723;55.684;37.928;2022-12-18T06:06:48;99610.97;;;-4.70;78.21
28510;BME280;15723;55.684;37.928;2022-12-18T06:09:14;99615.25;;;-4.54;78.08
28510;BME280;15723;55.684;37.928;2022-12-18T06:11:40;99610.81;;;-4.52;78.25
28510;BME280;15723;55.684;37.928;2022-12-18T06:14:07;99637.34;;;-4.58;78.14
28510;BME280;15723;55.684;37.928;2022-12-18T06:16:33;99632.84;;;-4.46;78.68
28510;BME280;15723;55.684;37.928;2022-12-18T06:19:02;99631.94;;;-4.43;78.23
28510;BME280;15723;55.684;37.928;2022-12-18T06:21:29;99636.38;;;-4.45;78.71
28510;BME280;15723;55.684;37.928;2022-12-18T06:23:55;99642.66;;;-4.60;78.60
28510;BME280;15723;55.684;37.928;2022-12-18T06:26:22;99642.72;;;-4.67;78.61
28510;BME280;15723;55.684;37.928;2022-12-18T06:28:48;99637.25;;;-4.46;78.97
28510;BME280;15723;55.684;37.928;2022-12-18T06:31:14;99632.00;;;-4.52;78.86
28510;BME280;15723;55.684;37.928;2022-12-18T06:33:40;99646.25;;;-4.68;78.95
28510;BME280;15723;55.684;37.928;2022-12-18T06:36:09;99643.44;;;-4.47;79.17
28510;BME280;15723;55.684;37.928;2022-12-18T06:38:42;99641.69;;;-4.48;78.23
28510;BME280;15723;55.684;37.928;2022-12-18T06:41:11;99653.25;;;-4.60;78.40
28510;BME280;15723;55.684;37.928;2022-12-18T06:43:38;99649.81;;;-4.69;78.99
28510;BME280;15723;55.684;37.928;2022-12-18T06:46:05;99655.06;;;-4.65;79.19
28510;BME280;15723;55.684;37.928;2022-12-18T06:48:32;99671.56;;;-4.28;78.90
28510;BME280;15723;55.684;37.928;2022-12-18T06:50:59;99682.16;;;-4.28;78.94
28510;BME280;15723;55.684;37.928;2022-12-18T06:53:25;99690.22;;;-4.46;78.29
28510;BME280;15723;55.684;37.928;2022-12-18T06:55:51;99695.44;;;-4.32;78.33
28510;BME280;15723;55.684;37.928;2022-12-18T06:58:18;99707.13;;;-4.59;77.90
28510;BME280;15723;55.684;37.928;2022-12-18T07:00:44;99701.63;;;-4.33;77.58
28510;BME280;15723;55.684;37.928;2022-12-18T07:03:10;99721.13;;;-4.42;77.72
28510;BME280;15723;55.684;37.928;2022-12-18T07:05:40;99724.72;;;-4.54;77.37
28510;BME280;15723;55.684;37.928;2022-12-18T07:08:06;99724.69;;;-4.49;77.20
28510;BME280;15723;55.684;37.928;2022-12-18T07:10:32;99733.44;;;-4.32;77.30
28510;BME280;15723;55.684;37.928;2022-12-18T07:12:59;99740.47;;;-4.29;76.51
28510;BME280;15723;55.684;37.928;2022-12-18T07:15:25;99735.16;;;-4.26;76.79
28510;BME280;15723;55.684;37.928;2022-12-18T07:17:51;99734.38;;;-4.41;76.52
28510;BME280;15723;55.684;37.928;2022-12-18T07:20:17;99725.38;;;-4.20;76.63
28510;BME280;15723;55.684;37.928;2022-12-18T07:22:43;99737.84;;;-4.32;75.99
28510;BME280;15723;55.684;37.928;2022-12-18T07:25:10;99744.09;;;-4.43;76.38
28510;BME280;15723;55.684;37.928;2022-12-18T07:27:36;99744.78;;;-4.18;75.51
28510;BME280;15723;55.684;37.928;2022-12-18T07:30:03;99740.31;;;-4.13;75.18
28510;BME280;15723;55.684;37.928;2022-12-18T07:32:30;99747.44;;;-4.16;75.48
28510;BME280;15723;55.684;37.928;2022-12-18T07:34:56;99747.31;;;-3.99;75.04
28510;BME280;15723;55.684;37.928;2022-12-18T07:37:22;99761.47;;;-4.02;74.57
28510;BME280;15723;55.684;37.928;2022-12-18T07:39:48;99772.88;;;-3.91;74.40
28510;BME280;15723;55.684;37.928;2022-12-18T07:42:15;99775.59;;;-3.98;74.55
28510;BME280;15723;55.684;37.928;2022-12-18T07:44:57;99785.44;;;-4.17;74.24
28510;BME280;15723;55.684;37.928;2022-12-18T07:47:24;99773.88;;;-4.05;74.46
28510;BME280;15723;55.684;37.928;2022-12-18T07:49:51;99794.19;;;-4.03;74.61
28510;BME280;15723;55.684;37.928;2022-12-18T07:52:17;99787.75;;;-3.76;74.06
28510;BME280;15723;55.684;37.928;2022-12-18T07:54:45;99787.91;;;-3.91;73.47
28510;BME280;15723;55.684;37.928;2022-12-18T07:57:11;99779.13;;;-4.01;73.48
28510;BME280;15723;55.684;37.928;2022-12-18T07:59:37;99791.38;;;-3.86;73.55
28510;BME280;15723;55.684;37.928;2022-12-18T08:02:04;99790.47;;;-3.84;73.54
28510;BME280;15723;55.684;37.928;2022-12-18T08:04:30;99784.03;;;-3.55;73.51
28510;BME280;15723;55.684;37.928;2022-12-18T08:06:56;99793.03;;;-3.73;72.81
28510;BME280;15723;55.684;37.928;2022-12-18T08:09:22;99793.28;;;-4.00;73.03
28510;BME280;15723;55.684;37.928;2022-12-18T08:11:48;99795.78;;;-3.84;72.97
28510;BME280;15723;55.684;37.928;2022-12-18T08:14:15;99802.13;;;-4.01;73.38
28510;BME280;15723;55.684;37.928;2022-12-18T08:16:41;99805.69;;;-4.05;73.25
28510;BME280;15723;55.684;37.928;2022-12-18T08:19:07;99812.69;;;-3.97;73.15
28510;BME280;15723;55.684;37.928;2022-12-18T08:21:33;99824.13;;;-3.90;73.17
28510;BME280;15723;55.684;37.928;2022-12-18T08:24:00;99827.72;;;-3.96;72.72
28510;BME280;15723;55.684;37.928;2022-12-18T08:26:29;99834.69;;;-3.83;72.78
28510;BME280;15723;55.684;37.928;2022-12-18T08:28:57;99837.31;;;-3.80;72.84
28510;BME280;15723;55.684;37.928;2022-12-18T08:31:26;99844.53;;;-4.00;72.96
28510;BME280;15723;55.684;37.928;2022-12-18T08:33:53;99840.75;;;-3.65;73.21
28510;BME280;15723;55.684;37.928;2022-12-18T08:36:20;99853.41;;;-4.02;72.70
28510;BME280;15723;55.684;37.928;2022-12-18T08:38:47;99856.00;;;-3.98;72.98
28510;BME280;15723;55.684;37.928;2022-12-18T08:41:15;99868.44;;;-4.04;73.09
28510;BME280;15723;55.684;37.928;2022-12-18T08:43:41;99867.28;;;-3.67;73.05
28510;BME280;15723;55.684;37.928;2022-12-18T08:46:27;99879.81;;;-3.90;72.65
28510;BME280;15723;55.684;37.928;2022-12-18T08:48:57;99886.09;;;-4.02;73.38
28510;BME280;15723;55.684;37.928;2022-12-18T08:51:23;99879.00;;;-4.00;73.27
28510;BME280;15723;55.684;37.928;2022-12-18T08:53:50;99879.78;;;-3.86;73.74
28510;BME280;15723;55.684;37.928;2022-12-18T08:56:16;99886.81;;;-3.80;73.24
28510;BME280;15723;55.684;37.928;2022-12-18T08:58:42;99898.28;;;-3.75;73.45
28510;BME280;15723;55.684;37.928;2022-12-18T09:01:10;99892.19;;;-3.89;73.72
28510;BME280;15723;55.684;37.928;2022-12-18T09:03:38;99895.72;;;-3.90;73.72
28510;BME280;15723;55.684;37.928;2022-12-18T09:06:05;99898.34;;;-3.86;73.96
28510;BME280;15723;55.684;37.928;2022-12-18T09:08:34;99890.44;;;-3.90;73.72
28510;BME280;15723;55.684;37.928;2022-12-18T09:11:01;99892.22;;;-3.92;74.14
28510;BME280;15723;55.684;37.928;2022-12-18T09:13:27;99888.78;;;-4.08;74.47
28510;BME280;15723;55.684;37.928;2022-12-18T09:15:54;99893.09;;;-3.93;74.48
28510;BME280;15723;55.684;37.928;2022-12-18T09:18:22;99901.81;;;-3.74;73.92
28510;BME280;15723;55.684;37.928;2022-12-18T09:20:49;99909.84;;;-3.84;73.99
28510;BME280;15723;55.684;37.928;2022-12-18T09:23:20;99906.31;;;-3.87;74.11
28510;BME280;15723;55.684;37.928;2022-12-18T09:25:46;99918.72;;;-3.92;74.51
28510;BME280;15723;55.684;37.928;2022-12-18T09:28:16;99930.00;;;-3.58;73.38
28510;BME280;15723;55.684;37.928;2022-12-18T09:30:44;99931.78;;;-3.60;73.34
28510;BME280;15723;55.684;37.928;2022-12-18T09:33:11;99927.97;;;-3.23;73.58
28510;BME280;15723;55.684;37.928;2022-12-18T09:35:38;99932.63;;;-3.52;73.69
28510;BME280;15723;55.684;37.928;2022-12-18T09:38:06;99930.84;;;-3.53;74.12
28510;BME280;15723;55.684;37.928;2022-12-18T09:40:36;99933.41;;;-3.41;73.62
28510;BME280;15723;55.684;37.928;2022-12-18T09:43:06;99934.34;;;-3.47;74.18
28510;BME280;15723;55.684;37.928;2022-12-18T09:45:43;99939.63;;;-3.45;74.45
28510;BME280;15723;55.684;37.928;2022-12-18T09:48:18;99937.06;;;-3.54;74.27
28510;BME280;15723;55.684;37.928;2022-12-18T09:50:46;99939.66;;;-3.50;74.44
28510;BME280;15723;55.684;37.928;2022-12-18T09:53:20;99943.38;;;-3.75;74.75
28510;BME280;15723;55.684;37.928;2022-12-18T09:55:48;99943.38;;;-3.75;75.32
28510;BME280;15723;55.684;37.928;2022-12-18T09:58:28;99946.00;;;-3.72;75.02
28510;BME280;15723;55.684;37.928;2022-12-18T10:00:58;99945.94;;;-3.58;75.57
28510;BME280;15723;55.684;37.928;2022-12-18T10:03:24;99944.16;;;-3.56;75.07
28510;BME280;15723;55.684;37.928;2022-12-18T10:06:04;99964.53;;;-3.63;75.25
28510;BME280;15723;55.684;37.928;2022-12-18T10:11:21;99964.31;;;-3.35;75.46
28510;BME280;15723;55.684;37.928;2022-12-18T10:14:06;99953.03;;;-3.62;74.87
28510;BME280;15723;55.684;37.928;2022-12-18T10:16:43;99967.03;;;-3.43;75.12
28510;BME280;15723;55.684;37.928;2022-12-18T10:26:49;99969.78;;;-3.55;75.49
28510;BME280;15723;55.684;37.928;2022-12-18T10:29:16;99977.75;;;-3.54;75.94
28510;BME280;15723;55.684;37.928;2022-12-18T10:31:43;99962.72;;;-3.55;75.67
28510;BME280;15723;55.684;37.928;2022-12-18T10:34:12;99964.53;;;-3.63;75.95
28510;BME280;15723;55.684;37.928;2022-12-18T10:36:39;99960.06;;;-3.56;76.01
28510;BME280;15723;55.684;37.928;2022-12-18T10:39:23;99962.78;;;-3.65;76.51
28510;BME280;15723;55.684;37.928;2022-12-18T10:41:50;99951.22;;;-3.55;76.39
28510;BME280;15723;55.684;37.928;2022-12-18T10:46:49;99969.88;;;-3.73;76.50
28510;BME280;15723;55.684;37.928;2022-12-18T10:49:31;99986.72;;;-3.81;76.74
28510;BME280;15723;55.684;37.928;2022-12-18T10:52:24;99980.50;;;-3.73;76.80
28510;BME280;15723;55.684;37.928;2022-12-18T10:54:55;99984.91;;;-3.72;76.52
28510;BME280;15723;55.684;37.928;2022-12-18T10:57:31;100013.31;;;-3.90;77.04
28510;BME280;15723;55.684;37.928;2022-12-18T11:00:18;100005.34;;;-3.88;76.97
28510;BME280;15723;55.684;37.928;2022-12-18T11:02:47;100011.47;;;-3.80;77.53
28510;BME280;15723;55.684;37.928;2022-12-18T11:07:51;100032.66;;;-3.72;77.01
28510;BME280;15723;55.684;37.928;2022-12-18T11:10:21;100042.44;;;-3.82;76.89
28510;BME280;15723;55.684;37.928;2022-12-18T11:12:48;100052.16;;;-3.83;77.18
28510;BME280;15723;55.684;37.928;2022-12-18T11:15:21;100052.97;;;-3.59;76.55
28510;BME280;15723;55.684;37.928;2022-12-18T11:17:50;100049.50;;;-3.81;76.40
28510;BME280;15723;55.684;37.928;2022-12-18T11:20:32;100051.31;;;-3.91;77.36
28510;BME280;15723;55.684;37.928;2022-12-18T11:23:05;100056.56;;;-3.80;77.39
28510;BME280;15723;55.684;37.928;2022-12-18T11:25:36;100047.81;;;-3.94;76.92
28510;BME280;15723;55.684;37.928;2022-12-18T11:31:23;100044.22;;;-3.84;77.41
28510;BME280;15723;55.684;37.928;2022-12-18T11:34:34;100061.09;;;-4.02;77.51
28510;BME280;15723;55.684;37.928;2022-12-18T11:37:00;100058.38;;;-3.88;78.62
28510;BME280;15723;55.684;37.928;2022-12-18T11:39:42;100065.47;;;-3.92;78.35
28510;BME280;15723;55.684;37.928;2022-12-18T11:42:54;100069.94;;;-4.09;77.99
28510;BME280;15723;55.684;37.928;2022-12-18T11:48:03;100077.00;;;-4.14;78.84
28510;BME280;15723;55.684;37.928;2022-12-18T11:50:49;100083.19;;;-4.04;78.92
28510;BME280;15723;55.684;37.928;2022-12-18T11:53:17;100082.31;;;-4.10;78.59
28510;BME280;15723;55.684;37.928;2022-12-18T11:55:52;100084.97;;;-4.13;78.69
28510;BME280;15723;55.684;37.928;2022-12-18T11:58:42;100100.88;;;-4.06;79.22
28510;BME280;15723;55.684;37.928;2022-12-18T12:01:22;100093.78;;;-4.12;78.82
28510;BME280;15723;55.684;37.928;2022-12-18T12:09:51;100117.66;;;-4.17;79.00
28510;BME280;15723;55.684;37.928;2022-12-18T12:12:55;100133.56;;;-4.00;78.85
28510;BME280;15723;55.684;37.928;2022-12-18T12:15:43;100136.22;;;-4.15;78.60
28510;BME280;15723;55.684;37.928;2022-12-18T12:29:26;100160.06;;;-3.97;78.02
28510;BME280;15723;55.684;37.928;2022-12-18T12:32:20;100155.69;;;-4.05;77.99
28510;BME280;15723;55.684;37.928;2022-12-18T12:37:41;100160.97;;;-3.99;77.70
28510;BME280;15723;55.684;37.928;2022-12-18T12:40:14;100169.81;;;-4.19;78.17
28510;BME280;15723;55.684;37.928;2022-12-18T12:42:51;100175.13;;;-4.16;78.13
28510;BME280;15723;55.684;37.928;2022-12-18T12:45:55;100165.38;;;-4.15;78.51
28510;BME280;15723;55.684;37.928;2022-12-18T12:49:01;100183.94;;;-4.12;78.73
28510;BME280;15723;55.684;37.928;2022-12-18T12:51:32;100194.56;;;-4.18;78.19
28510;BME280;15723;55.684;37.928;2022-12-18T12:54:00;100191.91;;;-4.17;78.39
28510;BME280;15723;55.684;37.928;2022-12-18T12:56:42;100201.63;;;-4.19;78.16
28510;BME280;15723;55.684;37.928;2022-12-18T12:59:24;100211.34;;;-4.22;78.05
28510;BME280;15723;55.684;37.928;2022-12-18T13:02:05;100208.69;;;-4.22;78.12
28510;BME280;15723;55.684;37.928;2022-12-18T13:04:45;100214.88;;;-4.37;78.74
28510;BME280;15723;55.684;37.928;2022-12-18T13:13:06;100236.97;;;-4.09;78.40
28510;BME280;15723;55.684;37.928;2022-12-18T13:26:27;100255.53;;;-4.11;78.47
28510;BME280;15723;55.684;37.928;2022-12-18T13:36:42;100282.94;;;-4.19;78.31
28510;BME280;15723;55.684;37.928;2022-12-18T13:39:22;100282.03;;;-4.20;78.09
28510;BME280;15723;55.684;37.928;2022-12-18T13:42:34;100283.81;;;-4.17;78.39
28510;BME280;15723;55.684;37.928;2022-12-18T13:45:00;100291.75;;;-4.38;78.95
28510;BME280;15723;55.684;37.928;2022-12-18T13:47:36;100288.22;;;-4.28;78.97
28510;BME280;15723;55.684;37.928;2022-12-18T13:50:22;100301.47;;;-4.28;78.98
28510;BME280;15723;55.684;37.928;2022-12-18T13:52:51;100299.75;;;-3.97;78.57
28510;BME280;15723;55.684;37.928;2022-12-18T13:55:20;100317.38;;;-4.31;78.88
28510;BME280;15723;55.684;37.928;2022-12-18T13:57:46;100314.72;;;-4.31;79.22
28510;BME280;15723;55.684;37.928;2022-12-18T14:02:49;100335.03;;;-4.32;79.58
28510;BME280;15723;55.684;37.928;2022-12-18T14:05:36;100325.34;;;-4.21;79.19
28510;BME280;15723;55.684;37.928;2022-12-18T14:08:10;100333.28;;;-4.37;79.71
28510;BME280;15723;55.684;37.928;2022-12-18T14:10:45;100337.69;;;-4.41;79.95
28510;BME280;15723;55.684;37.928;2022-12-18T14:13:20;100357.13;;;-4.37;80.03
28510;BME280;15723;55.684;37.928;2022-12-18T14:15:49;100348.31;;;-4.29;80.23
28510;BME280;15723;55.684;37.928;2022-12-18T14:18:57;100363.28;;;-4.43;79.94
28510;BME280;15723;55.684;37.928;2022-12-18T14:21:30;100373.03;;;-4.33;80.24
28510;BME280;15723;55.684;37.928;2022-12-18T14:24:24;100365.06;;;-4.34;80.29
28510;BME280;15723;55.684;37.928;2022-12-18T14:26:51;100366.84;;;-4.32;80.54
28510;BME280;15723;55.684;37.928;2022-12-18T14:29:35;100367.72;;;-4.37;80.23
28510;BME280;15723;55.684;37.928;2022-12-18T14:34:33;100379.22;;;-4.34;79.80
28510;BME280;15723;55.684;37.928;2022-12-18T14:37:00;100385.44;;;-4.21;79.97
28510;BME280;15723;55.684;37.928;2022-12-18T14:39:26;100377.44;;;-4.33;79.22